Time;durP1;ratioP1;P1;durP2;ratioP2;P2;SDS_P1;SDS_P2;PMS_P1;PMS_P2;Temp;Humidity;BMP_temperature;BMP_pressure;BME280_temperature;BME280_humidity;BME280_pressure;Samples;Min_cycle;Max_cycle;Signal;HPM_P1;HPM_P2
2022/05/27 00:01:55;;;;;;;2.83;1.35;;;15.60;1.00;;;;;;7363308;19;20493;-59
2022/05/27 00:04:27;;;;;;;3.33;1.13;;;15.50;1.00;;;;;;7360456;19;20014;-60
2022/05/27 00:06:57;;;;;;;1.55;1.17;;;15.50;1.00;;;;;;7365925;19;20062;-59
2022/05/27 00:09:27;;;;;;;2.90;1.50;;;15.50;1.00;;;;;;7366140;19;20168;-59
2022/05/27 00:11:57;;;;;;;2.33;1.25;;;15.50;1.00;;;;;;7384819;19;20408;-59
2022/05/27 00:14:27;;;;;;;5.38;1.45;;;15.40;1.00;;;;;;7359287;19;20031;-60
2022/05/27 00:16:57;;;;;;;1.98;1.27;;;15.40;1.00;;;;;;7365165;19;20014;-58
2022/05/27 00:19:30;;;;;;;1.42;1.30;;;15.40;1.00;;;;;;7365219;19;20020;-60
2022/05/27 00:22:00;;;;;;;1.88;1.40;;;15.40;1.00;;;;;;7363304;19;20021;-59
2022/05/27 00:24:30;;;;;;;3.55;1.50;;;15.40;1.00;;;;;;7359455;19;20082;-59
2022/05/27 00:27:01;;;;;;;2.67;1.80;;;15.30;1.00;;;;;;7387328;19;20006;-60
2022/05/27 00:29:31;;;;;;;3.70;1.40;;;15.20;1.00;;;;;;7365249;19;20007;-59
2022/05/27 00:32:21;;;;;;;1.88;1.30;;;15.10;1.00;;;;;;7361171;19;20017;-60
2022/05/27 00:34:54;;;;;;;2.80;1.40;;;15.10;1.00;;;;;;7358446;19;20010;-60
2022/05/27 00:37:24;;;;;;;6.25;1.73;;;15.10;1.00;;;;;;7364938;19;20006;-60
2022/05/27 00:39:56;;;;;;;2.85;1.60;;;15.10;1.00;;;;;;7364795;19;20034;-60
2022/05/27 00:42:27;;;;;;;1.73;1.27;;;15.00;1.00;;;;;;7363085;19;20047;-60
2022/05/27 00:44:57;;;;;;;2.35;1.60;;;15.10;1.00;;;;;;7379493;19;20011;-60
2022/05/27 00:47:35;;;;;;;3.10;1.50;;;15.10;1.00;;;;;;7364841;19;20051;-60
2022/05/27 00:50:13;;;;;;;3.20;1.60;;;15.20;1.00;;;;;;7363778;19;20078;-60
2022/05/27 00:52:44;;;;;;;2.80;1.35;;;15.10;1.00;;;;;;7362033;19;20082;-59
2022/05/27 00:55:19;;;;;;;2.15;1.38;;;15.10;1.00;;;;;;7356328;19;20029;-59
2022/05/27 00:57:53;;;;;;;2.45;1.60;;;15.00;1.00;;;;;;7364615;19;20463;-59
2022/05/27 01:00:27;;;;;;;2.00;1.70;;;15.00;1.00;;;;;;7368880;19;20018;-60
2022/05/27 01:02:57;;;;;;;3.03;1.50;;;15.00;1.00;;;;;;7391280;19;20110;-60
2022/05/27 01:05:30;;;;;;;2.63;1.67;;;15.00;1.00;;;;;;7363927;19;20104;-59
2022/05/27 01:08:04;;;;;;;3.13;1.67;;;14.90;1.00;;;;;;7370831;19;20458;-59
2022/05/27 01:10:44;;;;;;;2.95;1.70;;;14.90;1.00;;;;;;7371753;19;20010;-59
2022/05/27 01:13:25;;;;;;;2.72;1.50;;;14.90;1.00;;;;;;7367361;19;20020;-59
2022/05/27 01:16:07;;;;;;;4.85;1.90;;;14.90;1.00;;;;;;7369627;19;20655;-59
2022/05/27 01:21:51;;;;;;;4.25;1.77;;;14.90;1.00;;;;;;7367953;19;20011;-60
2022/05/27 01:24:51;;;;;;;2.08;1.35;;;14.90;1.00;;;;;;7365881;19;20010;-60
2022/05/27 01:27:38;;;;;;;2.97;1.77;;;14.90;1.00;;;;;;7369036;19;20022;-60
2022/05/27 01:30:22;;;;;;;4.68;1.85;;;14.90;1.00;;;;;;7369866;19;20018;-60
2022/05/27 01:33:08;;;;;;;2.47;1.80;;;14.80;1.00;;;;;;7389753;19;20539;-60
2022/05/27 01:35:45;;;;;;;3.38;1.48;;;14.80;1.00;;;;;;7366053;19;20101;-59
2022/05/27 01:38:21;;;;;;;3.20;1.92;;;14.80;1.00;;;;;;7371116;19;20070;-59
2022/05/27 01:40:59;;;;;;;3.83;1.98;;;14.80;1.00;;;;;;7367541;19;20021;-59
2022/05/27 01:43:41;;;;;;;3.25;1.80;;;14.70;1.00;;;;;;7366399;19;20023;-59
2022/05/27 01:46:17;;;;;;;2.20;1.60;;;14.60;1.00;;;;;;7370168;19;20035;-59
2022/05/27 01:48:59;;;;;;;2.70;1.67;;;14.60;1.00;;;;;;7371389;19;20085;-59
2022/05/27 01:51:33;;;;;;;3.35;1.90;;;14.60;1.00;;;;;;7366827;19;20011;-59
2022/05/27 01:54:09;;;;;;;9.32;4.43;;;14.60;1.00;;;;;;7386717;19;20018;-59
2022/05/27 01:56:45;;;;;;;3.47;2.40;;;14.50;1.00;;;;;;7367274;19;20014;-59
2022/05/27 01:59:20;;;;;;;3.97;2.10;;;14.50;1.00;;;;;;7369417;19;20014;-59
2022/05/27 02:01:58;;;;;;;4.45;1.83;;;14.50;1.00;;;;;;7364426;19;20461;-60
2022/05/27 02:04:37;;;;;;;5.15;2.10;;;14.50;1.00;;;;;;7363459;19;20498;-60
2022/05/27 02:07:11;;;;;;;4.60;2.28;;;14.50;1.00;;;;;;7368274;19;20497;-60
2022/05/27 02:09:45;;;;;;;4.50;1.88;;;14.40;1.00;;;;;;7370074;19;20082;-59
2022/05/27 02:12:34;;;;;;;4.15;1.80;;;14.50;1.00;;;;;;7364644;19;20021;-59
2022/05/27 02:15:08;;;;;;;3.03;1.80;;;14.50;1.00;;;;;;7383793;19;20024;-59
2022/05/27 02:17:44;;;;;;;4.53;2.00;;;14.40;1.00;;;;;;7368654;19;20070;-59
2022/05/27 02:20:19;;;;;;;2.97;1.83;;;14.40;1.00;;;;;;7368033;19;20437;-60
2022/05/27 02:22:55;;;;;;;3.95;1.80;;;14.50;1.00;;;;;;7365376;19;20017;-59
2022/05/27 02:25:29;;;;;;;6.80;2.03;;;14.40;1.00;;;;;;7363053;19;20022;-60
2022/05/27 02:28:04;;;;;;;2.17;1.60;;;14.50;1.00;;;;;;7368725;19;20015;-59
2022/05/27 02:30:37;;;;;;;2.55;1.60;;;14.50;1.00;;;;;;7368522;19;20034;-59
2022/05/27 02:36:00;;;;;;;2.90;1.80;;;14.40;1.00;;;;;;7387594;19;20014;-59
2022/05/27 02:38:30;;;;;;;3.03;1.90;;;14.40;1.00;;;;;;7367883;19;20017;-59
2022/05/27 02:41:14;;;;;;;3.05;1.95;;;14.40;1.00;;;;;;7364525;19;20014;-59
2022/05/27 02:43:55;;;;;;;4.85;1.88;;;14.30;1.00;;;;;;7362491;19;20011;-59
2022/05/27 02:46:35;;;;;;;4.22;2.22;;;14.30;1.00;;;;;;7368121;19;20011;-59
2022/05/27 02:49:17;;;;;;;5.70;2.13;;;14.30;1.00;;;;;;7368039;19;20006;-59
2022/05/27 02:51:57;;;;;;;2.30;1.55;;;14.40;1.00;;;;;;7364518;19;20462;-59
2022/05/27 02:54:32;;;;;;;2.92;1.70;;;14.30;1.00;;;;;;7361744;19;20901;-59
2022/05/27 02:57:09;;;;;;;3.92;2.20;;;14.30;1.00;;;;;;7387902;19;20070;-59
2022/05/27 02:59:40;;;;;;;4.22;2.05;;;14.40;1.00;;;;;;7367563;19;20020;-59
2022/05/27 03:02:13;;;;;;;6.55;1.98;;;14.50;1.00;;;;;;7364786;19;20522;-58
2022/05/27 03:04:48;;;;;;;4.30;1.98;;;14.50;1.00;;;;;;7362487;19;20010;-60
2022/05/27 03:07:33;;;;;;;4.38;2.03;;;14.60;1.00;;;;;;7367988;19;20450;-59
2022/05/27 03:10:19;;;;;;;4.72;2.10;;;14.60;1.00;;;;;;7366820;19;20018;-59
2022/05/27 03:13:00;;;;;;;3.30;2.10;;;14.50;1.00;;;;;;7364563;19;20021;-60
2022/05/27 03:15:41;;;;;;;3.67;1.98;;;14.60;1.00;;;;;;7360822;19;20007;-59
2022/05/27 03:18:23;;;;;;;2.85;1.85;;;14.50;1.00;;;;;;7367073;19;20035;-60
2022/05/27 03:21:05;;;;;;;3.30;1.95;;;14.60;1.00;;;;;;7384189;19;20018;-59
2022/05/27 03:23:50;;;;;;;2.65;2.00;;;14.70;1.00;;;;;;7358111;19;20010;-59
2022/05/27 03:26:34;;;;;;;2.47;1.90;;;14.70;1.00;;;;;;7366355;19;20018;-60
2022/05/27 03:29:14;;;;;;;3.83;1.80;;;14.80;1.00;;;;;;7366235;19;20480;-59
2022/05/27 03:31:55;;;;;;;2.78;1.73;;;14.90;1.00;;;;;;7363724;19;20014;-59
2022/05/27 03:34:28;;;;;;;3.38;1.85;;;14.80;1.00;;;;;;7359863;19;20370;-59
2022/05/27 03:37:06;;;;;;;4.20;1.90;;;14.90;1.00;;;;;;7366531;19;20367;-60
2022/05/27 03:39:44;;;;;;;2.42;1.90;;;14.90;1.00;;;;;;7366583;19;20526;-58
2022/05/27 03:42:16;;;;;;;4.07;2.10;;;14.80;1.00;;;;;;7362367;19;20014;-59
2022/05/27 03:44:53;;;;;;;3.00;2.15;;;14.80;1.00;;;;;;7379465;19;20477;-59
2022/05/27 03:47:24;;;;;;;3.42;2.50;;;14.90;1.00;;;;;;7365605;19;20366;-59
2022/05/27 03:49:54;;;;;;;3.85;2.08;;;15.10;1.00;;;;;;7365416;19;20021;-59
2022/05/27 03:52:30;;;;;;;3.40;2.20;;;15.00;1.00;;;;;;7363181;19;20367;-59
2022/05/27 03:55:00;;;;;;;3.50;2.25;;;14.80;1.00;;;;;;7358570;19;20019;-59
2022/05/27 03:57:30;;;;;;;4.20;2.50;;;14.70;1.00;;;;;;7365240;19;20098;-59
2022/05/27 04:00:00;;;;;;;5.75;2.40;;;14.80;1.00;;;;;;7387478;19;20086;-59
2022/05/27 04:02:29;;;;;;;3.53;2.42;;;15.50;1.00;;;;;;7362346;19;20085;-58
2022/05/27 04:04:59;;;;;;;5.18;2.35;;;15.30;1.00;;;;;;7357667;19;20114;-59
2022/05/27 04:07:33;;;;;;;4.00;2.05;;;15.10;1.00;;;;;;7365243;19;20018;-59
2022/05/27 04:10:02;;;;;;;3.97;2.40;;;14.90;1.00;;;;;;7365349;19;20016;-58
2022/05/27 04:12:32;;;;;;;3.00;2.30;;;14.80;1.00;;;;;;7361752;19;20017;-58
2022/05/27 04:15:02;;;;;;;9.25;3.13;;;14.90;1.00;;;;;;7379057;19;20358;-58
2022/05/27 04:17:35;;;;;;;3.60;2.42;;;14.80;1.00;;;;;;7364010;19;20019;-59
2022/05/27 04:20:08;;;;;;;4.20;2.20;;;14.80;1.00;;;;;;7365676;19;20478;-59
2022/05/27 04:22:41;;;;;;;3.75;2.25;;;15.10;1.00;;;;;;7361282;19;20018;-59
2022/05/27 04:25:15;;;;;;;5.07;2.78;;;16.40;1.00;;;;;;7359217;19;20010;-58
2022/05/27 04:27:45;;;;;;;3.55;2.30;;;17.10;1.00;;;;;;7363147;19;20016;-59
2022/05/27 04:30:16;;;;;;;3.90;2.25;;;17.70;1.00;;;;;;7365147;19;20018;-60
2022/05/27 04:32:46;;;;;;;4.50;2.78;;;18.20;1.00;;;;;;7383939;19;20010;-59
2022/05/27 04:35:16;;;;;;;3.58;2.30;;;18.90;1.00;;;;;;7360091;19;20455;-60
2022/05/27 04:37:48;;;;;;;4.90;2.72;;;19.10;1.00;;;;;;7370286;19;20011;-60
2022/05/27 04:40:18;;;;;;;3.50;2.17;;;19.40;1.00;;;;;;7372296;19;20021;-59
2022/05/27 04:42:48;;;;;;;3.28;2.20;;;20.30;1.00;;;;;;7368240;19;20010;-59
2022/05/27 04:45:19;;;;;;;2.95;2.05;;;20.30;1.00;;;;;;7364087;19;20017;-59
2022/05/27 04:47:49;;;;;;;5.43;2.00;;;20.40;1.00;;;;;;7394316;19;20106;-59
2022/05/27 04:50:20;;;;;;;6.68;2.33;;;20.50;1.00;;;;;;7371798;19;20342;-59
2022/05/27 04:52:53;;;;;;;3.80;2.03;;;20.10;1.00;;;;;;7368625;19;20019;-59
2022/05/27 04:55:24;;;;;;;5.05;1.98;;;20.50;1.00;;;;;;7365708;19;20098;-59
2022/05/27 04:57:56;;;;;;;4.10;2.13;;;21.00;1.00;;;;;;7370192;19;20014;-59
2022/05/27 05:00:29;;;;;;;3.17;1.83;;;20.60;1.00;;;;;;7371688;19;20019;-59
2022/05/27 05:02:59;;;;;;;3.40;2.10;;;19.50;1.00;;;;;;7387802;19;20042;-59
2022/05/27 05:05:34;;;;;;;3.00;1.88;;;18.10;1.00;;;;;;7361058;19;20017;-60
2022/05/27 05:08:10;;;;;;;8.65;2.15;;;16.70;1.00;;;;;;7366305;19;20014;-59
2022/05/27 05:10:40;;;;;;;4.97;2.17;;;16.20;1.00;;;;;;7369630;19;20025;-59
2022/05/27 05:13:10;;;;;;;3.15;2.65;;;16.00;1.00;;;;;;7362540;19;20017;-59
2022/05/27 05:15:41;;;;;;;5.90;2.50;;;16.00;1.00;;;;;;7363190;19;20007;-59
2022/05/27 05:18:11;;;;;;;5.60;2.80;;;15.80;1.00;;;;;;7367300;19;20011;-60
2022/05/27 05:20:41;;;;;;;3.13;2.45;;;15.80;1.00;;;;;;7390300;19;20353;-59
2022/05/27 05:23:13;;;;;;;4.40;3.30;;;15.70;1.00;;;;;;7363695;19;20018;-59
2022/05/27 05:25:43;;;;;;;5.32;2.58;;;15.40;1.00;;;;;;7364802;19;20010;-59
2022/05/27 05:28:13;;;;;;;5.18;3.20;;;15.40;1.00;;;;;;7369240;19;20014;-60
2022/05/27 05:30:43;;;;;;;5.78;3.33;;;15.30;1.00;;;;;;7368846;19;20170;-59
2022/05/27 05:33:13;;;;;;;5.22;3.63;;;15.20;1.00;;;;;;7364063;19;20011;-58
2022/05/27 05:35:43;;;;;;;3.92;3.10;;;15.20;1.00;;;;;;7384206;19;20038;-59
2022/05/27 05:38:16;;;;;;;4.65;3.10;;;15.10;1.00;;;;;;7366906;19;20011;-60
2022/05/27 05:40:46;;;;;;;5.18;2.97;;;15.10;1.00;;;;;;7367942;19;20466;-59
2022/05/27 05:43:16;;;;;;;5.05;3.58;;;15.20;1.00;;;;;;7366815;19;20132;-59
2022/05/27 05:45:46;;;;;;;5.85;3.13;;;15.20;1.00;;;;;;7362420;19;20089;-60
2022/05/27 05:48:16;;;;;;;5.47;3.47;;;15.30;1.00;;;;;;7369624;19;20018;-60
2022/05/27 05:50:46;;;;;;;7.43;3.42;;;15.20;1.00;;;;;;7390767;19;20023;-60
2022/05/27 05:53:21;;;;;;;4.82;3.60;;;15.30;1.00;;;;;;7365233;19;20267;-60
2022/05/27 05:55:51;;;;;;;6.68;4.18;;;15.20;1.00;;;;;;7364400;19;20026;-60
2022/05/27 05:58:21;;;;;;;6.72;3.70;;;15.20;1.00;;;;;;7368015;19;20143;-59
2022/05/27 06:00:51;;;;;;;8.57;4.10;;;15.20;1.00;;;;;;7367134;19;20485;-60
2022/05/27 06:03:21;;;;;;;4.82;3.53;;;15.20;1.00;;;;;;7367162;19;20032;-60
2022/05/27 06:05:51;;;;;;;4.28;3.63;;;15.40;1.00;;;;;;7384494;19;20090;-60
2022/05/27 06:08:23;;;;;;;5.43;3.50;;;15.20;1.00;;;;;;7367857;19;20764;-60
2022/05/27 06:10:53;;;;;;;5.63;3.50;;;15.20;1.00;;;;;;7364931;19;20021;-60
2022/05/27 06:13:23;;;;;;;7.20;3.97;;;15.30;1.00;;;;;;7366874;19;20019;-59
2022/05/27 06:15:53;;;;;;;7.65;3.78;;;15.10;1.00;;;;;;7363567;19;20006;-59
2022/05/27 06:18:23;;;;;;;7.22;3.83;;;14.90;1.00;;;;;;7368414;19;20023;-59
2022/05/27 06:20:52;;;;;;;5.22;3.72;;;14.90;1.00;;;;;;7387722;19;20465;-59
2022/05/27 06:23:27;;;;;;;6.90;3.85;;;15.10;1.00;;;;;;7366192;19;20022;-59
2022/05/27 06:25:57;;;;;;;;;;;15.00;1.00;;;;;;7363985;19;20106;-60
2022/05/27 06:36:37;;;;;;;4.63;3.28;;;15.10;1.00;;;;;;7369204;19;20010;-60
2022/05/27 06:39:10;;;;;;;5.40;3.50;;;15.10;1.00;;;;;;7370043;19;20014;-59
2022/05/27 06:41:40;;;;;;;5.57;3.33;;;14.90;1.00;;;;;;7386798;19;20090;-59
2022/05/27 06:44:11;;;;;;;4.55;3.53;;;15.00;1.00;;;;;;7360486;19;20010;-60
2022/05/27 06:46:41;;;;;;;3.97;2.80;;;14.90;1.00;;;;;;7367838;19;20011;-60
2022/05/27 06:49:12;;;;;;;7.30;3.00;;;15.00;1.00;;;;;;7368083;19;20019;-60
2022/05/27 06:51:43;;;;;;;10.18;3.10;;;15.10;1.00;;;;;;7365271;19;20466;-59
2022/05/27 06:54:17;;;;;;;4.72;2.63;;;14.90;1.00;;;;;;7360517;19;20014;-59
2022/05/27 06:56:49;;;;;;;5.13;2.65;;;15.20;1.00;;;;;;7388656;19;20077;-60
2022/05/27 06:59:19;;;;;;;7.10;3.20;;;15.10;1.00;;;;;;7366139;19;20014;-60
2022/05/27 07:01:50;;;;;;;4.90;2.47;;;15.10;1.00;;;;;;7364064;19;20485;-59
2022/05/27 07:04:20;;;;;;;5.03;3.00;;;15.00;1.00;;;;;;7359906;19;20018;-60
2022/05/27 07:06:51;;;;;;;5.60;3.28;;;15.20;1.00;;;;;;7366695;19;20078;-60
2022/05/27 07:09:25;;;;;;;4.93;3.03;;;15.10;1.00;;;;;;7367597;19;20486;-60
2022/05/27 07:11:56;;;;;;;6.03;3.03;;;15.20;1.00;;;;;;7385593;19;20466;-60
2022/05/27 07:14:26;;;;;;;5.68;2.80;;;15.20;1.00;;;;;;7359371;19;20272;-60
2022/05/27 07:16:56;;;;;;;8.63;2.83;;;15.20;1.00;;;;;;7366304;19;20003;-59
2022/05/27 07:19:38;;;;;;;7.85;2.78;;;15.30;1.00;;;;;;7365692;19;20034;-59
2022/05/27 07:22:08;;;;;;;5.32;2.67;;;15.40;1.00;;;;;;7363574;19;20010;-60
2022/05/27 07:24:42;;;;;;;4.30;2.67;;;15.40;1.00;;;;;;7360155;19;20021;-60
2022/05/27 07:27:11;;;;;;;6.15;3.20;;;15.40;1.00;;;;;;7366651;19;21023;-60
2022/05/27 07:29:41;;;;;;;5.78;3.15;;;15.20;1.00;;;;;;7388348;19;20013;-59
2022/05/27 07:32:11;;;;;;;5.03;2.55;;;15.10;1.00;;;;;;7361741;19;20081;-59
2022/05/27 07:34:41;;;;;;;4.70;2.80;;;15.40;1.00;;;;;;7359325;19;20015;-58
2022/05/27 07:37:11;;;;;;;4.85;2.53;;;15.40;1.00;;;;;;7366475;19;20017;-59
2022/05/27 07:39:43;;;;;;;8.02;2.90;;;15.30;1.00;;;;;;7364796;19;20010;-60
2022/05/27 07:42:13;;;;;;;5.38;3.05;;;15.30;1.00;;;;;;7363535;19;20011;-60
2022/05/27 07:44:43;;;;;;;6.20;3.25;;;15.20;1.00;;;;;;7380775;19;20025;-60
2022/05/27 07:47:13;;;;;;;6.40;3.03;;;15.20;1.00;;;;;;7364674;19;20007;-59
2022/05/27 07:49:43;;;;;;;4.47;2.88;;;15.10;1.00;;;;;;7365925;19;20442;-59
2022/05/27 07:52:13;;;;;;;7.10;3.47;;;15.20;1.00;;;;;;7362335;19;20015;-60
2022/05/27 07:54:45;;;;;;;7.47;2.88;;;15.30;1.00;;;;;;7358317;19;20085;-59
2022/05/27 07:57:28;;;;;;;5.50;3.22;;;15.30;1.00;;;;;;7366005;19;20018;-60
2022/05/27 08:00:04;;;;;;;3.67;2.78;;;15.40;1.00;;;;;;7386198;19;20019;-59
2022/05/27 08:02:34;;;;;;;5.75;3.08;;;15.50;1.00;;;;;;7360975;19;20009;-60
2022/05/27 08:05:04;;;;;;;4.82;3.38;;;15.40;1.00;;;;;;7357307;19;20015;-60
2022/05/27 08:07:34;;;;;;;4.53;3.20;;;15.30;1.00;;;;;;7364806;19;20544;-59
2022/05/27 08:10:08;;;;;;;6.50;2.80;;;15.30;1.00;;;;;;7364386;19;20013;-59
2022/05/27 08:12:39;;;;;;;7.03;3.50;;;15.50;1.00;;;;;;7363345;19;20011;-60
2022/05/27 08:15:13;;;;;;;3.83;2.83;;;15.50;1.00;;;;;;7357390;19;20364;-59
2022/05/27 08:17:44;;;;;;;7.20;3.47;;;15.40;1.00;;;;;;7386303;19;20017;-59
2022/05/27 08:20:17;;;;;;;4.30;2.80;;;15.60;1.00;;;;;;7362739;19;20482;-60
2022/05/27 08:22:46;;;;;;;6.55;3.35;;;15.80;1.00;;;;;;7361843;19;20038;-60
2022/05/27 08:25:20;;;;;;;5.18;3.05;;;15.90;1.00;;;;;;7357010;19;20006;-59
2022/05/27 08:27:50;;;;;;;4.82;3.25;;;15.60;1.00;;;;;;7365458;19;20017;-59
2022/05/27 08:30:24;;;;;;;3.38;2.70;;;15.90;1.00;;;;;;7364358;19;20029;-60
2022/05/27 08:32:56;;;;;;;5.88;3.10;;;15.80;1.00;;;;;;7383251;19;20577;-58
2022/05/27 08:38:11;;;;;;;6.15;3.05;;;15.80;1.00;;;;;;7365098;19;20014;-60
2022/05/27 08:41:21;;;;;;;6.13;2.78;;;16.00;1.00;;;;;;7363129;19;20015;-59
2022/05/27 08:44:13;;;;;;;4.68;3.10;;;15.90;1.00;;;;;;7358356;19;20098;-60
2022/05/27 08:46:53;;;;;;;5.78;3.40;;;15.70;1.00;;;;;;7363709;19;20010;-58
2022/05/27 08:49:28;;;;;;;3.90;2.90;;;15.70;1.00;;;;;;7364181;19;20010;-59
2022/05/27 08:52:03;;;;;;;5.45;3.38;;;15.90;1.00;;;;;;7359663;19;20013;-60
2022/05/27 08:54:38;;;;;;;5.63;3.20;;;15.90;1.00;;;;;;7356937;19;20015;-60
2022/05/27 09:00:00;;;;;;;3.83;2.60;;;16.90;1.00;;;;;;7383500;19;20470;-60
2022/05/27 09:02:37;;;;;;;3.80;2.67;;;16.70;1.00;;;;;;7360083;19;20019;-59
2022/05/27 09:05:15;;;;;;;4.05;3.17;;;16.60;1.00;;;;;;7355741;19;20100;-60
2022/05/27 09:07:51;;;;;;;3.90;2.47;;;17.30;1.00;;;;;;7364025;19;20014;-60
2022/05/27 09:10:31;;;;;;;3.65;2.30;;;18.10;1.00;;;;;;7363683;19;20006;-60
2022/05/27 09:13:17;;;;;;;4.70;2.17;;;18.00;1.00;;;;;;7360760;19;20003;-60
2022/05/27 09:15:54;;;;;;;4.70;2.45;;;17.90;1.00;;;;;;7358123;19;20085;-60
2022/05/27 09:18:29;;;;;;;3.85;2.47;;;18.00;1.00;;;;;;7363382;19;20011;-58
2022/05/27 09:21:13;;;;;;;4.13;2.33;;;17.80;1.00;;;;;;7381156;19;20405;-59
2022/05/27 09:23:58;;;;;;;2.97;2.15;;;17.10;1.00;;;;;;7364371;19;20017;-59
2022/05/27 09:26:34;;;;;;;4.65;2.00;;;17.10;1.00;;;;;;7370175;19;20024;-59
2022/05/27 09:29:17;;;;;;;2.60;2.13;;;17.20;1.00;;;;;;7369770;19;20014;-61
2022/05/27 09:31:53;;;;;;;3.25;2.00;;;17.30;1.00;;;;;;7365725;19;20016;-61
2022/05/27 09:34:25;;;;;;;4.72;1.88;;;17.10;1.00;;;;;;7362512;19;20006;-60
2022/05/27 09:36:57;;;;;;;3.17;2.30;;;16.90;1.00;;;;;;7370234;19;20078;-60
2022/05/27 09:39:27;;;;;;;2.97;2.30;;;17.10;1.00;;;;;;7370117;19;20339;-60
2022/05/27 09:42:05;;;;;;;4.18;2.42;;;17.30;1.00;;;;;;7388291;19;20086;-60
2022/05/27 09:44:44;;;;;;;5.22;2.65;;;17.10;1.00;;;;;;7362321;19;20007;-59
2022/05/27 09:47:15;;;;;;;5.78;2.53;;;16.60;1.00;;;;;;7368830;19;20561;-59
2022/05/27 09:49:46;;;;;;;5.95;2.20;;;16.70;1.00;;;;;;7370719;19;20337;-60
2022/05/27 09:52:16;;;;;;;4.30;2.40;;;16.60;1.00;;;;;;7365745;19;20025;-60
2022/05/27 09:54:49;;;;;;;3.22;2.60;;;16.40;1.00;;;;;;7362590;19;20017;-59
2022/05/27 09:57:25;;;;;;;6.28;2.53;;;16.70;1.00;;;;;;7369921;19;20134;-59
2022/05/27 10:00:00;;;;;;;3.67;2.25;;;16.70;1.00;;;;;;7389150;19;20106;-60
2022/05/27 10:02:34;;;;;;;3.80;2.55;;;17.00;1.00;;;;;;7366335;19;20033;-61
2022/05/27 10:05:06;;;;;;;2.50;2.30;;;16.60;1.00;;;;;;7360383;19;20014;-58
2022/05/27 10:07:40;;;;;;;3.28;2.33;;;16.80;1.00;;;;;;7369962;19;20078;-60
2022/05/27 10:10:28;;;;;;;2.63;2.40;;;17.30;1.00;;;;;;7369664;19;20090;-59
2022/05/27 10:12:59;;;;;;;4.28;2.53;;;17.20;1.00;;;;;;7365699;19;20086;-60
2022/05/27 10:15:35;;;;;;;7.13;3.10;;;17.60;1.00;;;;;;7361263;19;20015;-59
2022/05/27 10:18:19;;;;;;;2.70;2.30;;;18.00;1.00;;;;;;7390701;19;20021;-59
2022/05/27 10:20:55;;;;;;;2.65;1.90;;;18.30;1.00;;;;;;7367564;19;20007;-60
2022/05/27 10:23:28;;;;;;;4.60;2.38;;;18.30;1.00;;;;;;7364614;19;20013;-60
2022/05/27 10:26:01;;;;;;;2.67;2.10;;;19.10;1.00;;;;;;7365767;19;20014;-60
2022/05/27 10:28:34;;;;;;;2.15;1.92;;;19.30;1.00;;;;;;7367999;19;20024;-59
2022/05/27 10:31:17;;;;;;;3.42;2.40;;;19.00;1.00;;;;;;7365071;19;20011;-60
2022/05/27 10:33:49;;;;;;;3.35;2.22;;;18.60;1.00;;;;;;7360879;19;20077;-60
2022/05/27 10:36:46;;;;;;;2.63;2.20;;;18.50;1.00;;;;;;7367305;19;20021;-59
2022/05/27 10:39:25;;;;;;;3.35;2.15;;;18.50;1.00;;;;;;7367786;19;20021;-60
2022/05/27 10:42:12;;;;;;;5.65;2.53;;;18.40;1.00;;;;;;7385175;19;20025;-60
2022/05/27 10:44:56;;;;;;;5.90;2.53;;;18.00;1.00;;;;;;7359959;19;20023;-60
2022/05/27 10:47:47;;;;;;;3.40;2.20;;;18.30;1.00;;;;;;7367606;19;20469;-61
2022/05/27 10:50:24;;;;;;;6.63;2.25;;;18.60;1.00;;;;;;7364486;19;20011;-59
2022/05/27 10:53:13;;;;;;;3.85;2.30;;;18.80;1.00;;;;;;7362105;19;20010;-59
2022/05/27 10:55:54;;;;;;;3.42;2.33;;;18.80;1.00;;;;;;7362128;19;20062;-59
2022/05/27 11:04:42;;;;;;;4.82;2.40;;;19.50;1.00;;;;;;7359804;19;20364;-61
2022/05/27 11:07:22;;;;;;;6.97;2.40;;;19.50;1.00;;;;;;7366152;19;20102;-60
2022/05/27 11:10:04;;;;;;;5.30;2.25;;;18.80;1.00;;;;;;7367231;19;20007;-60
2022/05/27 11:15:42;;;;;;;4.75;2.03;;;18.90;1.00;;;;;;7357567;19;20477;-61
2022/05/27 11:18:23;;;;;;;3.35;1.55;;;19.50;1.00;;;;;;7366946;19;20018;-60
2022/05/27 11:21:14;;;;;;;4.80;1.67;;;20.20;1.00;;;;;;7385863;19;20014;-59
2022/05/27 11:24:16;;;;;;;3.72;1.58;;;20.20;1.00;;;;;;7360304;19;20077;-60
2022/05/27 11:26:59;;;;;;;2.95;1.40;;;20.50;1.00;;;;;;7366865;19;20442;-61
2022/05/27 11:29:50;;;;;;;2.20;1.30;;;20.20;1.00;;;;;;7365834;19;20126;-60
2022/05/27 11:32:29;;;;;;;4.72;1.40;;;20.30;1.00;;;;;;7363310;19;20010;-60
2022/05/27 11:35:09;;;;;;;5.78;2.38;;;20.30;1.00;;;;;;7357734;19;20082;-60
2022/05/27 11:37:56;;;;;;;2.67;1.35;;;20.30;1.00;;;;;;7365711;19;20010;-60
2022/05/27 11:40:34;;;;;;;2.63;1.50;;;20.20;1.00;;;;;;7364700;19;20014;-59
2022/05/27 11:43:37;;;;;;;2.55;1.45;;;19.60;1.00;;;;;;7361177;19;20016;-60
2022/05/27 11:46:42;;;;;;;2.35;1.15;;;20.50;1.00;;;;;;7360113;19;20130;-60
2022/05/27 11:49:33;;;;;;;1.20;1.10;;;20.50;1.00;;;;;;7361781;19;20010;-60
2022/05/27 11:52:14;;;;;;;3.90;1.52;;;20.20;1.00;;;;;;7361736;19;20022;-61
2022/05/27 11:55:06;;;;;;;1.55;1.23;;;20.60;1.00;;;;;;7362546;19;20573;-61
2022/05/27 11:57:47;;;;;;;3.90;1.45;;;20.60;1.00;;;;;;7364417;19;20086;-60
2022/05/27 12:00:21;;;;;;;2.22;1.48;;;21.40;1.00;;;;;;7362679;19;20047;-59
2022/05/27 12:02:57;;;;;;;5.05;1.77;;;21.20;1.00;;;;;;7382403;19;20066;-60
2022/05/27 12:05:31;;;;;;;3.17;1.35;;;20.30;1.00;;;;;;7356517;19;20018;-60
2022/05/27 12:08:04;;;;;;;1.73;1.35;;;20.10;1.00;;;;;;7363900;19;20094;-62
2022/05/27 12:10:44;;;;;;;1.88;1.13;;;21.30;1.00;;;;;;7362988;19;20026;-60
2022/05/27 12:13:22;;;;;;;2.67;1.30;;;20.80;1.00;;;;;;7358064;19;20045;-60
2022/05/27 12:15:56;;;;;;;1.35;0.90;;;21.40;1.00;;;;;;7359516;19;20021;-61
2022/05/27 12:18:30;;;;;;;2.13;1.35;;;20.50;1.00;;;;;;7362887;19;20027;-60
2022/05/27 12:21:02;;;;;;;2.15;1.48;;;21.20;1.00;;;;;;7384024;19;20025;-60
2022/05/27 12:23:33;;;;;;;1.45;0.93;;;21.40;1.00;;;;;;7361332;19;20287;-58
2022/05/27 12:26:05;;;;;;;1.35;1.00;;;20.60;1.00;;;;;;7361379;19;20304;-60
2022/05/27 12:28:41;;;;;;;2.17;1.10;;;20.20;1.00;;;;;;7363900;19;20017;-61
2022/05/27 12:31:13;;;;;;;1.95;1.13;;;20.60;1.00;;;;;;7361077;19;20011;-59
2022/05/27 12:33:44;;;;;;;3.90;1.30;;;20.80;1.00;;;;;;7360901;19;20031;-60
2022/05/27 12:36:20;;;;;;;1.52;1.20;;;20.70;1.00;;;;;;7361581;19;20014;-60
2022/05/27 12:38:53;;;;;;;1.75;1.10;;;20.50;1.00;;;;;;7386748;19;20082;-60
2022/05/27 12:41:38;;;;;;;2.75;1.20;;;20.70;1.00;;;;;;7359601;19;20102;-61
2022/05/27 12:44:28;;;;;;;4.70;1.27;;;20.80;1.00;;;;;;7359317;19;20018;-60
2022/05/27 12:47:01;;;;;;;1.40;1.10;;;20.70;1.00;;;;;;7364081;19;20487;-60
2022/05/27 12:49:36;;;;;;;2.63;1.20;;;20.60;1.00;;;;;;7363219;19;20074;-59
2022/05/27 12:52:08;;;;;;;1.73;1.10;;;20.50;1.00;;;;;;7360497;19;20122;-61
2022/05/27 12:55:04;;;;;;;4.50;1.40;;;20.60;1.00;;;;;;7357521;19;20033;-61
2022/05/27 13:00:58;;;;;;;2.80;1.20;;;20.90;1.00;;;;;;7370106;19;20010;-61
2022/05/27 13:03:48;;;;;;;5.80;1.50;;;20.50;1.00;;;;;;7366023;19;20019;-60
2022/05/27 13:06:40;;;;;;;4.15;1.35;;;20.30;1.00;;;;;;7367713;19;20027;-60
2022/05/27 13:09:27;;;;;;;2.90;1.33;;;21.00;1.00;;;;;;7370124;19;20020;-61
2022/05/27 13:11:57;;;;;;;2.92;1.52;;;20.50;1.00;;;;;;7389746;19;20399;-60
2022/05/27 13:14:43;;;;;;;2.50;1.80;;;20.80;1.00;;;;;;7364927;19;20489;-59
2022/05/27 13:17:30;;;;;;;3.08;1.58;;;20.20;1.00;;;;;;7369274;19;20082;-60
2022/05/27 13:20:09;;;;;;;1.92;1.20;;;20.60;1.00;;;;;;7369157;19;20066;-59
2022/05/27 13:23:00;;;;;;;1.92;1.50;;;20.20;1.00;;;;;;7341686;19;20276;-61
2022/05/27 13:25:34;;;;;;;3.17;1.67;;;20.10;1.00;;;;;;7339120;19;20041;-60
2022/05/27 13:28:26;;;;;;;5.75;1.52;;;20.20;1.00;;;;;;7364463;19;20014;-60
2022/05/27 13:31:13;;;;;;;3.50;1.40;;;20.60;1.00;;;;;;7369292;19;20034;-61
2022/05/27 13:33:51;;;;;;;1.90;1.23;;;20.70;1.00;;;;;;7362782;19;20014;-60
2022/05/27 13:36:24;;;;;;;7.40;1.70;;;20.20;1.00;;;;;;7367665;19;20359;-59
2022/05/27 13:38:57;;;;;;;2.63;1.27;;;19.70;1.00;;;;;;7387943;19;20038;-60
2022/05/27 13:41:30;;;;;;;2.55;1.50;;;19.80;1.00;;;;;;7366155;19;20654;-61
2022/05/27 13:44:00;;;;;;;1.77;1.40;;;20.30;1.00;;;;;;7360435;19;20106;-60
2022/05/27 13:46:38;;;;;;;4.80;1.40;;;19.40;1.00;;;;;;7365587;19;20077;-60
2022/05/27 13:49:14;;;;;;;3.70;1.40;;;19.70;1.00;;;;;;7369382;19;20011;-60
2022/05/27 13:51:48;;;;;;;2.10;1.40;;;19.30;1.00;;;;;;7369138;19;20709;-60
2022/05/27 13:54:19;;;;;;;;;;;19.60;1.00;;;;;;7365283;19;20021;-60
2022/05/27 13:57:02;;;;;;;3.85;1.48;;;20.10;1.00;;;;;;7389126;19;19922;-59
2022/05/27 13:59:38;;;;;;;2.92;1.20;;;19.70;1.00;;;;;;7369432;19;20010;-61
2022/05/27 14:02:20;;;;;;;3.05;1.10;;;19.10;1.00;;;;;;7363924;19;20011;-60
2022/05/27 14:04:53;;;;;;;1.08;0.90;;;19.40;1.00;;;;;;7360857;19;20023;-61
2022/05/27 14:07:30;;;;;;;1.77;1.02;;;19.70;1.00;;;;;;7367359;19;20039;-60
2022/05/27 14:10:03;;;;;;;2.20;1.15;;;20.50;1.00;;;;;;7366041;19;20014;-59
2022/05/27 14:12:35;;;;;;;1.58;1.00;;;20.00;1.00;;;;;;7366868;19;20082;-61
2022/05/27 14:15:09;;;;;;;3.03;1.35;;;20.30;1.00;;;;;;7384351;19;20094;-61